sensor_id;sensor_type;location;lat;lon;timestamp;pressure;altitude;pressure_sealevel;temperature
58102;BMP280;52034;51.926;6.320;2023-04-25T00:00:24;100882.00;;;8.17
58102;BMP280;52034;51.926;6.320;2023-04-25T00:01:25;100886.84;;;8.16
58102;BMP280;52034;51.926;6.320;2023-04-25T00:02:25;100895.13;;;8.14
58102;BMP280;52034;51.926;6.320;2023-04-25T00:03:25;100895.13;;;8.14
58102;BMP280;52034;51.926;6.320;2023-04-25T00:04:27;100886.03;;;8.14
58102;BMP280;52034;51.926;6.320;2023-04-25T00:05:27;100886.84;;;8.16
58102;BMP280;52034;51.926;6.320;2023-04-25T00:06:29;100895.88;;;8.15
58102;BMP280;52034;51.926;6.320;2023-04-25T00:07:29;100888.00;;;8.11
58102;BMP280;52034;51.926;6.320;2023-04-25T00:08:31;100895.66;;;8.11
58102;BMP280;52034;51.926;6.320;2023-04-25T00:09:31;100892.06;;;8.08
58102;BMP280;52034;51.926;6.320;2023-04-25T00:10:32;100882.13;;;8.05
58102;BMP280;52034;51.926;6.320;2023-04-25T00:11:33;100887.72;;;8.05
58102;BMP280;52034;51.926;6.320;2023-04-25T00:12:33;100882.81;;;8.06
58102;BMP280;52034;51.926;6.320;2023-04-25T00:13:33;100892.69;;;8.07
58102;BMP280;52034;51.926;6.320;2023-04-25T00:14:34;100894.00;;;8.06
58102;BMP280;52034;51.926;6.320;2023-04-25T00:15:35;100889.66;;;8.03
58102;BMP280;52034;51.926;6.320;2023-04-25T00:16:37;100890.41;;;8.03
58102;BMP280;52034;51.926;6.320;2023-04-25T00:17:38;100895.97;;;8.03
58102;BMP280;52034;51.926;6.320;2023-04-25T00:18:38;100897.97;;;8.01
58102;BMP280;52034;51.926;6.320;2023-04-25T00:19:38;100892.19;;;7.97
58102;BMP280;52034;51.926;6.320;2023-04-25T00:20:39;100891.44;;;7.96
58102;BMP280;52034;51.926;6.320;2023-04-25T00:21:39;100888.44;;;7.92
58102;BMP280;52034;51.926;6.320;2023-04-25T00:22:42;100885.34;;;7.86
58102;BMP280;52034;51.926;6.320;2023-04-25T00:23:43;100883.19;;;7.85
58102;BMP280;52034;51.926;6.320;2023-04-25T00:24:43;100883.69;;;7.81
58102;BMP280;52034;51.926;6.320;2023-04-25T00:25:45;100882.66;;;7.75
58102;BMP280;52034;51.926;6.320;2023-04-25T00:26:45;100884.13;;;7.76
58102;BMP280;52034;51.926;6.320;2023-04-25T00:27:46;100884.03;;;7.74
58102;BMP280;52034;51.926;6.320;2023-04-25T00:28:47;100879.06;;;7.72
58102;BMP280;52034;51.926;6.320;2023-04-25T00:29:47;100881.13;;;7.72
58102;BMP280;52034;51.926;6.320;2023-04-25T00:30:48;100881.22;;;7.74
58102;BMP280;52034;51.926;6.320;2023-04-25T00:31:48;100891.88;;;7.77
58102;BMP280;52034;51.926;6.320;2023-04-25T00:32:49;100893.22;;;7.76
58102;BMP280;52034;51.926;6.320;2023-04-25T00:33:50;100897.47;;;7.77
58102;BMP280;52034;51.926;6.320;2023-04-25T00:34:50;100905.94;;;7.79
58102;BMP280;52034;51.926;6.320;2023-04-25T00:35:50;100907.50;;;7.82
58102;BMP280;52034;51.926;6.320;2023-04-25T00:36:51;100903.38;;;7.83
58102;BMP280;52034;51.926;6.320;2023-04-25T00:37:51;100909.16;;;7.87
58102;BMP280;52034;51.926;6.320;2023-04-25T00:38:53;100902.13;;;7.86
58102;BMP280;52034;51.926;6.320;2023-04-25T00:39:53;100915.38;;;7.86
58102;BMP280;52034;51.926;6.320;2023-04-25T00:40:55;100907.09;;;7.88
58102;BMP280;52034;51.926;6.320;2023-04-25T00:41:57;100908.44;;;7.87
58102;BMP280;52034;51.926;6.320;2023-04-25T00:42:57;100897.25;;;7.73
58102;BMP280;52034;51.926;6.320;2023-04-25T00:43:59;100890.94;;;7.73
58102;BMP280;52034;51.926;6.320;2023-04-25T00:45:00;100901.63;;;7.76
58102;BMP280;52034;51.926;6.320;2023-04-25T00:46:01;100900.16;;;7.75
58102;BMP280;52034;51.926;6.320;2023-04-25T00:47:01;100904.09;;;7.70
58102;BMP280;52034;51.926;6.320;2023-04-25T00:48:03;100906.25;;;7.72
58102;BMP280;52034;51.926;6.320;2023-04-25T00:49:04;100905.53;;;7.71
58102;BMP280;52034;51.926;6.320;2023-04-25T00:50:05;100906.38;;;7.74
58102;BMP280;52034;51.926;6.320;2023-04-25T00:51:06;100905.66;;;7.73
58102;BMP280;52034;51.926;6.320;2023-04-25T00:52:06;100903.59;;;7.74
58102;BMP280;52034;51.926;6.320;2023-04-25T00:53:07;100901.50;;;7.74
58102;BMP280;52034;51.926;6.320;2023-04-25T00:54:11;100917.03;;;7.77
58102;BMP280;52034;51.926;6.320;2023-04-25T00:55:12;100919.00;;;7.75
58102;BMP280;52034;51.926;6.320;2023-04-25T00:56:13;100913.50;;;7.77
58102;BMP280;52034;51.926;6.320;2023-04-25T00:57:13;100914.25;;;7.77
58102;BMP280;52034;51.926;6.320;2023-04-25T00:58:14;100912.19;;;7.78
58102;BMP280;52034;51.926;6.320;2023-04-25T00:59:15;100919.91;;;7.79
58102;BMP280;52034;51.926;6.320;2023-04-25T01:00:15;100918.44;;;7.78
58102;BMP280;52034;51.926;6.320;2023-04-25T01:01:17;100921.47;;;7.82
58102;BMP280;52034;51.926;6.320;2023-04-25T01:02:19;100924.91;;;7.81
58102;BMP280;52034;51.926;6.320;2023-04-25T01:03:21;100930.38;;;7.79
58102;BMP280;52034;51.926;6.320;2023-04-25T01:04:22;100930.28;;;7.77
58102;BMP280;52034;51.926;6.320;2023-04-25T01:05:23;100936.69;;;7.79
58102;BMP280;52034;51.926;6.320;2023-04-25T01:06:24;100921.88;;;7.77
58102;BMP280;52034;51.926;6.320;2023-04-25T01:07:25;100934.41;;;7.76
58102;BMP280;52034;51.926;6.320;2023-04-25T01:08:26;100924.59;;;7.75
58102;BMP280;52034;51.926;6.320;2023-04-25T01:09:26;100923.25;;;7.76
58102;BMP280;52034;51.926;6.320;2023-04-25T01:10:27;100926.78;;;7.76
58102;BMP280;52034;51.926;6.320;2023-04-25T01:11:28;100918.38;;;7.76
58102;BMP280;52034;51.926;6.320;2023-04-25T01:12:28;100926.66;;;7.74
58102;BMP280;52034;51.926;6.320;2023-04-25T01:13:29;100930.69;;;7.71
58102;BMP280;52034;51.926;6.320;2023-04-25T01:14:29;100924.38;;;7.71
58102;BMP280;52034;51.926;6.320;2023-04-25T01:15:30;100930.50;;;7.67
58102;BMP280;52034;51.926;6.320;2023-04-25T01:16:31;100919.59;;;7.60
58102;BMP280;52034;51.926;6.320;2023-04-25T01:17:34;100925.78;;;7.58
58102;BMP280;52034;51.926;6.320;2023-04-25T01:18:38;100920.16;;;7.56
58102;BMP280;52034;51.926;6.320;2023-04-25T01:19:38;100929.00;;;7.53
58102;BMP280;52034;51.926;6.320;2023-04-25T01:20:40;100927.44;;;7.50
58102;BMP280;52034;51.926;6.320;2023-04-25T01:21:42;100928.91;;;7.51
58102;BMP280;52034;51.926;6.320;2023-04-25T01:22:43;100924.66;;;7.50
58102;BMP280;52034;51.926;6.320;2023-04-25T01:23:43;100923.94;;;7.49
58102;BMP280;52034;51.926;6.320;2023-04-25T01:24:44;100919.69;;;7.48
58102;BMP280;52034;51.926;6.320;2023-04-25T01:25:45;100927.97;;;7.46
58102;BMP280;52034;51.926;6.320;2023-04-25T01:26:45;100927.97;;;7.46
58102;BMP280;52034;51.926;6.320;2023-04-25T01:27:51;100936.25;;;7.44
58102;BMP280;52034;51.926;6.320;2023-04-25T01:28:52;100930.75;;;7.46
58102;BMP280;52034;51.926;6.320;2023-04-25T01:29:54;100934.81;;;7.43
58102;BMP280;52034;51.926;6.320;2023-04-25T01:30:56;100936.44;;;7.48
58102;BMP280;52034;51.926;6.320;2023-04-25T01:31:57;100940.72;;;7.49
58102;BMP280;52034;51.926;6.320;2023-04-25T01:32:58;100933.25;;;7.54
58102;BMP280;52034;51.926;6.320;2023-04-25T01:33:59;100936.97;;;7.58
58102;BMP280;52034;51.926;6.320;2023-04-25T01:34:59;100934.28;;;7.60
58102;BMP280;52034;51.926;6.320;2023-04-25T01:36:00;100935.66;;;7.59
58102;BMP280;52034;51.926;6.320;2023-04-25T01:37:00;100934.41;;;7.62
58102;BMP280;52034;51.926;6.320;2023-04-25T01:38:02;100928.94;;;7.64
58102;BMP280;52034;51.926;6.320;2023-04-25T01:39:03;100929.84;;;7.69
58102;BMP280;52034;51.926;6.320;2023-04-25T01:40:04;100942.47;;;7.70
58102;BMP280;52034;51.926;6.320;2023-04-25T01:41:05;100936.88;;;7.70
58102;BMP280;52034;51.926;6.320;2023-04-25T01:42:06;100937.72;;;7.72
58102;BMP280;52034;51.926;6.320;2023-04-25T01:43:09;100937.72;;;7.72
58102;BMP280;52034;51.926;6.320;2023-04-25T01:44:12;100939.28;;;7.75
58102;BMP280;52034;51.926;6.320;2023-04-25T01:45:12;100937.22;;;7.76
58102;BMP280;52034;51.926;6.320;2023-04-25T01:46:13;100943.59;;;7.78
58102;BMP280;52034;51.926;6.320;2023-04-25T01:47:13;100939.41;;;7.77
58102;BMP280;52034;51.926;6.320;2023-04-25T01:48:14;100946.41;;;7.78
58102;BMP280;52034;51.926;6.320;2023-04-25T01:49:17;100942.28;;;7.79
58102;BMP280;52034;51.926;6.320;2023-04-25T01:50:18;100943.59;;;7.78
58102;BMP280;52034;51.926;6.320;2023-04-25T01:51:19;100946.50;;;7.80
58102;BMP280;52034;51.926;6.320;2023-04-25T01:52:20;100948.56;;;7.80
58102;BMP280;52034;51.926;6.320;2023-04-25T01:53:20;100948.50;;;7.78
58102;BMP280;52034;51.926;6.320;2023-04-25T01:54:22;100952.00;;;7.78
58102;BMP280;52034;51.926;6.320;2023-04-25T01:55:22;100957.09;;;7.82
58102;BMP280;52034;51.926;6.320;2023-04-25T01:56:31;100952.22;;;7.82
58102;BMP280;52034;51.926;6.320;2023-04-25T01:57:32;100951.38;;;7.80
58102;BMP280;52034;51.926;6.320;2023-04-25T01:58:34;100955.63;;;7.81
58102;BMP280;52034;51.926;6.320;2023-04-25T01:59:43;100952.00;;;7.78
58102;BMP280;52034;51.926;6.320;2023-04-25T02:00:52;100955.53;;;7.79
58102;BMP280;52034;51.926;6.320;2023-04-25T02:01:53;100947.78;;;7.77
58102;BMP280;52034;51.926;6.320;2023-04-25T02:02:59;100952.63;;;7.77
58102;BMP280;52034;51.926;6.320;2023-04-25T02:04:04;100953.38;;;7.77
58102;BMP280;52034;51.926;6.320;2023-04-25T02:05:08;100954.16;;;7.80
58102;BMP280;52034;51.926;6.320;2023-04-25T02:06:12;100959.25;;;7.83
58102;BMP280;52034;51.926;6.320;2023-04-25T02:07:17;100955.72;;;7.83
58102;BMP280;52034;51.926;6.320;2023-04-25T02:08:26;100953.66;;;7.83
58102;BMP280;52034;51.926;6.320;2023-04-25T02:09:28;100959.25;;;7.83
58102;BMP280;52034;51.926;6.320;2023-04-25T02:10:33;100966.09;;;7.80
58102;BMP280;52034;51.926;6.320;2023-04-25T02:12:04;100957.81;;;7.82
58102;BMP280;52034;51.926;6.320;2023-04-25T02:13:09;100969.00;;;7.82
58102;BMP280;52034;51.926;6.320;2023-04-25T02:14:16;100963.41;;;7.82
58102;BMP280;52034;51.926;6.320;2023-04-25T02:15:22;100965.47;;;7.82
58102;BMP280;52034;51.926;6.320;2023-04-25T02:16:30;100961.09;;;7.79
58102;BMP280;52034;51.926;6.320;2023-04-25T02:17:30;100965.47;;;7.82
58102;BMP280;52034;51.926;6.320;2023-04-25T02:18:31;100963.16;;;7.78
58102;BMP280;52034;51.926;6.320;2023-04-25T02:19:32;100963.16;;;7.78
58102;BMP280;52034;51.926;6.320;2023-04-25T02:20:33;100963.81;;;7.77
58102;BMP280;52034;51.926;6.320;2023-04-25T02:21:33;100965.16;;;7.76
58102;BMP280;52034;51.926;6.320;2023-04-25T02:22:36;100974.16;;;7.74
58102;BMP280;52034;51.926;6.320;2023-04-25T02:23:39;100969.31;;;7.75
58102;BMP280;52034;51.926;6.320;2023-04-25T02:24:39;100962.97;;;7.74
58102;BMP280;52034;51.926;6.320;2023-04-25T02:25:40;100967.94;;;7.76
58102;BMP280;52034;51.926;6.320;2023-04-25T02:26:40;100969.31;;;7.75
58102;BMP280;52034;51.926;6.320;2023-04-25T02:27:43;100962.97;;;7.74
58102;BMP280;52034;51.926;6.320;2023-04-25T02:28:43;100967.13;;;7.73
58102;BMP280;52034;51.926;6.320;2023-04-25T02:29:44;100967.00;;;7.71
58102;BMP280;52034;51.926;6.320;2023-04-25T02:30:45;100967.00;;;7.71
58102;BMP280;52034;51.926;6.320;2023-04-25T02:31:45;100967.00;;;7.71
58102;BMP280;52034;51.926;6.320;2023-04-25T02:32:46;100972.41;;;7.67
58102;BMP280;52034;51.926;6.320;2023-04-25T02:33:47;100970.84;;;7.64
58102;BMP280;52034;51.926;6.320;2023-04-25T02:34:47;100972.06;;;7.61
58102;BMP280;52034;51.926;6.320;2023-04-25T02:35:48;100974.97;;;7.63
58102;BMP280;52034;51.926;6.320;2023-04-25T02:36:48;100972.06;;;7.61
58102;BMP280;52034;51.926;6.320;2023-04-25T02:37:52;100976.22;;;7.60
58102;BMP280;52034;51.926;6.320;2023-04-25T02:38:52;100971.13;;;7.57
58102;BMP280;52034;51.926;6.320;2023-04-25T02:39:54;100982.94;;;7.55
58102;BMP280;52034;51.926;6.320;2023-04-25T02:40:55;100982.84;;;7.53
58102;BMP280;52034;51.926;6.320;2023-04-25T02:41:56;100984.75;;;7.51
58102;BMP280;52034;51.926;6.320;2023-04-25T02:42:56;100982.72;;;7.51
58102;BMP280;52034;51.926;6.320;2023-04-25T02:43:56;100985.41;;;7.49
58102;BMP280;52034;51.926;6.320;2023-04-25T02:44:57;100978.34;;;7.48
58102;BMP280;52034;51.926;6.320;2023-04-25T02:45:57;100985.28;;;7.47
58102;BMP280;52034;51.926;6.320;2023-04-25T02:46:57;100981.75;;;7.47
58102;BMP280;52034;51.926;6.320;2023-04-25T02:47:58;100975.34;;;7.44
58102;BMP280;52034;51.926;6.320;2023-04-25T02:48:58;100972.56;;;7.44
58102;BMP280;52034;51.926;6.320;2023-04-25T02:49:58;100988.28;;;7.51
58102;BMP280;52034;51.926;6.320;2023-04-25T02:50:59;100975.78;;;7.52
58102;BMP280;52034;51.926;6.320;2023-04-25T02:51:59;100984.28;;;7.54
58102;BMP280;52034;51.926;6.320;2023-04-25T02:52:59;100989.88;;;7.54
58102;BMP280;52034;51.926;6.320;2023-04-25T02:54:05;100983.66;;;7.56
58102;BMP280;52034;51.926;6.320;2023-04-25T02:55:10;100983.84;;;7.60
58102;BMP280;52034;51.926;6.320;2023-04-25T02:56:11;100981.78;;;7.60
58102;BMP280;52034;51.926;6.320;2023-04-25T02:57:11;100988.13;;;7.61
58102;BMP280;52034;51.926;6.320;2023-04-25T02:58:12;100986.03;;;7.61
58102;BMP280;52034;51.926;6.320;2023-04-25T02:59:24;100982.28;;;7.57
58102;BMP280;52034;51.926;6.320;2023-04-25T03:00:25;100978.88;;;7.58
58102;BMP280;52034;51.926;6.320;2023-04-25T03:01:25;100982.41;;;7.59
58102;BMP280;52034;51.926;6.320;2023-04-25T03:02:25;100976.00;;;7.56
58102;BMP280;52034;51.926;6.320;2023-04-25T03:03:26;100973.41;;;7.60
58102;BMP280;52034;51.926;6.320;2023-04-25T03:04:26;100983.75;;;7.58
58102;BMP280;52034;51.926;6.320;2023-04-25T03:05:27;100983.66;;;7.56
58102;BMP280;52034;51.926;6.320;2023-04-25T03:06:27;100980.88;;;7.56
58102;BMP280;52034;51.926;6.320;2023-04-25T03:07:27;100982.22;;;7.55
58102;BMP280;52034;51.926;6.320;2023-04-25T03:08:27;100980.03;;;7.53
58102;BMP280;52034;51.926;6.320;2023-04-25T03:09:33;100977.72;;;7.50
58102;BMP280;52034;51.926;6.320;2023-04-25T03:10:33;100979.81;;;7.49
58102;BMP280;52034;51.926;6.320;2023-04-25T03:11:38;100981.75;;;7.47
58102;BMP280;52034;51.926;6.320;2023-04-25T03:12:39;100972.66;;;7.46
58102;BMP280;52034;51.926;6.320;2023-04-25T03:13:39;100979.50;;;7.43
58102;BMP280;52034;51.926;6.320;2023-04-25T03:14:40;100982.28;;;7.43
58102;BMP280;52034;51.926;6.320;2023-04-25T03:15:40;100984.22;;;7.41
58102;BMP280;52034;51.926;6.320;2023-04-25T03:16:41;100970.16;;;7.39
58102;BMP280;52034;51.926;6.320;2023-04-25T03:17:41;100978.41;;;7.37
58102;BMP280;52034;51.926;6.320;2023-04-25T03:18:42;100981.94;;;7.37
58102;BMP280;52034;51.926;6.320;2023-04-25T03:19:43;100988.75;;;7.34
58102;BMP280;52034;51.926;6.320;2023-04-25T03:20:43;100983.28;;;7.36
58102;BMP280;52034;51.926;6.320;2023-04-25T03:21:44;100983.16;;;7.34
58102;BMP280;52034;51.926;6.320;2023-04-25T03:22:46;100988.75;;;7.34
58102;BMP280;52034;51.926;6.320;2023-04-25T03:23:46;100990.13;;;7.33
58102;BMP280;52034;51.926;6.320;2023-04-25T03:24:47;100994.97;;;7.33
58102;BMP280;52034;51.926;6.320;2023-04-25T03:25:48;100987.94;;;7.32
58102;BMP280;52034;51.926;6.320;2023-04-25T03:26:48;100986.38;;;7.29
58102;BMP280;52034;51.926;6.320;2023-04-25T03:27:48;100997.56;;;7.29
58102;BMP280;52034;51.926;6.320;2023-04-25T03:28:49;100995.47;;;7.29
58102;BMP280;52034;51.926;6.320;2023-04-25T03:29:49;101001.66;;;7.28
58102;BMP280;52034;51.926;6.320;2023-04-25T03:30:50;100993.91;;;7.26
58102;BMP280;52034;51.926;6.320;2023-04-25T03:31:50;100989.78;;;7.27
58102;BMP280;52034;51.926;6.320;2023-04-25T03:32:51;100989.78;;;7.27
58102;BMP280;52034;51.926;6.320;2023-04-25T03:33:51;100989.78;;;7.27
58102;BMP280;52034;51.926;6.320;2023-04-25T03:34:54;100995.47;;;7.29
58102;BMP280;52034;51.926;6.320;2023-04-25T03:35:55;100992.69;;;7.29
58102;BMP280;52034;51.926;6.320;2023-04-25T03:36:55;100992.34;;;7.23
58102;BMP280;52034;51.926;6.320;2023-04-25T03:37:56;100997.63;;;7.17
58102;BMP280;52034;51.926;6.320;2023-04-25T03:39:02;100989.63;;;7.12
58102;BMP280;52034;51.926;6.320;2023-04-25T03:40:05;100999.53;;;7.15
58102;BMP280;52034;51.926;6.320;2023-04-25T03:41:25;100990.31;;;7.12
58102;BMP280;52034;51.926;6.320;2023-04-25T03:42:30;100991.69;;;7.11
58102;BMP280;52034;51.926;6.320;2023-04-25T03:43:30;100998.72;;;7.12
58102;BMP280;52034;51.926;6.320;2023-04-25T03:44:37;100995.31;;;7.14
58102;BMP280;52034;51.926;6.320;2023-04-25T03:45:37;100996.03;;;7.14
58102;BMP280;52034;51.926;6.320;2023-04-25T03:46:37;100997.63;;;7.17
58102;BMP280;52034;51.926;6.320;2023-04-25T03:47:38;101002.69;;;7.21
58102;BMP280;52034;51.926;6.320;2023-04-25T03:48:38;100999.19;;;7.20
58102;BMP280;52034;51.926;6.320;2023-04-25T03:49:38;100994.31;;;7.21
58102;BMP280;52034;51.926;6.320;2023-04-25T03:50:40;100997.72;;;7.19
58102;BMP280;52034;51.926;6.320;2023-04-25T03:51:40;100996.25;;;7.18
58102;BMP280;52034;51.926;6.320;2023-04-25T03:52:41;100998.84;;;7.14
58102;BMP280;52034;51.926;6.320;2023-04-25T03:53:42;100994.22;;;7.19
58102;BMP280;52034;51.926;6.320;2023-04-25T03:55:01;101004.66;;;7.18
58102;BMP280;52034;51.926;6.320;2023-04-25T03:56:02;101005.38;;;7.19
58102;BMP280;52034;51.926;6.320;2023-04-25T03:57:05;101001.84;;;7.18
58102;BMP280;52034;51.926;6.320;2023-04-25T03:58:09;101004.50;;;7.16
58102;BMP280;52034;51.926;6.320;2023-04-25T03:59:09;101007.56;;;7.20
58102;BMP280;52034;51.926;6.320;2023-04-25T04:00:10;101000.50;;;7.19
58102;BMP280;52034;51.926;6.320;2023-04-25T04:01:13;101003.19;;;7.17
58102;BMP280;52034;51.926;6.320;2023-04-25T04:02:14;101015.06;;;7.18
58102;BMP280;52034;51.926;6.320;2023-04-25T04:03:15;101006.00;;;7.17
58102;BMP280;52034;51.926;6.320;2023-04-25T04:04:15;101000.28;;;7.15
58102;BMP280;52034;51.926;6.320;2023-04-25T04:05:16;101006.69;;;7.18
58102;BMP280;52034;51.926;6.320;2023-04-25T04:06:23;101013.50;;;7.15
58102;BMP280;52034;51.926;6.320;2023-04-25T04:07:29;101007.31;;;7.16
58102;BMP280;52034;51.926;6.320;2023-04-25T04:08:32;101016.41;;;7.17
58102;BMP280;52034;51.926;6.320;2023-04-25T04:09:32;101016.28;;;7.15
58102;BMP280;52034;51.926;6.320;2023-04-25T04:10:36;101017.63;;;7.14
58102;BMP280;52034;51.926;6.320;2023-04-25T04:11:38;101021.03;;;7.12
58102;BMP280;52034;51.926;6.320;2023-04-25T04:12:38;101019.69;;;7.13
58102;BMP280;52034;51.926;6.320;2023-04-25T04:13:39;101010.47;;;7.11
58102;BMP280;52034;51.926;6.320;2023-04-25T04:14:40;101015.38;;;7.10
58102;BMP280;52034;51.926;6.320;2023-04-25T04:15:40;101017.31;;;7.08
58102;BMP280;52034;51.926;6.320;2023-04-25T04:16:41;101021.56;;;7.09
58102;BMP280;52034;51.926;6.320;2023-04-25T04:17:42;101019.50;;;7.09
58102;BMP280;52034;51.926;6.320;2023-04-25T04:18:43;101020.22;;;7.10
58102;BMP280;52034;51.926;6.320;2023-04-25T04:19:43;101019.50;;;7.09
58102;BMP280;52034;51.926;6.320;2023-04-25T04:20:48;101018.78;;;7.09
58102;BMP280;52034;51.926;6.320;2023-04-25T04:21:48;101027.22;;;7.11
58102;BMP280;52034;51.926;6.320;2023-04-25T04:22:49;101027.22;;;7.11
58102;BMP280;52034;51.926;6.320;2023-04-25T04:23:50;101032.22;;;7.12
58102;BMP280;52034;51.926;6.320;2023-04-25T04:24:51;101030.88;;;7.13
58102;BMP280;52034;51.926;6.320;2023-04-25T04:25:57;101020.22;;;7.10
58102;BMP280;52034;51.926;6.320;2023-04-25T04:27:14;101021.78;;;7.13
58102;BMP280;52034;51.926;6.320;2023-04-25T04:28:34;101032.34;;;7.14
58102;BMP280;52034;51.926;6.320;2023-04-25T04:29:45;101023.97;;;7.14
58102;BMP280;52034;51.926;6.320;2023-04-25T04:31:08;101032.34;;;7.14
58102;BMP280;52034;51.926;6.320;2023-04-25T04:32:09;101027.22;;;7.11
58102;BMP280;52034;51.926;6.320;2023-04-25T04:33:10;101035.13;;;7.14
58102;BMP280;52034;51.926;6.320;2023-04-25T04:34:11;101023.84;;;7.12
58102;BMP280;52034;51.926;6.320;2023-04-25T04:35:13;101029.41;;;7.12
58102;BMP280;52034;51.926;6.320;2023-04-25T04:36:14;101030.25;;;7.15
58102;BMP280;52034;51.926;6.320;2023-04-25T04:37:15;101036.56;;;7.15
58102;BMP280;52034;51.926;6.320;2023-04-25T04:38:16;101030.25;;;7.15
58102;BMP280;52034;51.926;6.320;2023-04-25T04:39:18;101037.41;;;7.18
58102;BMP280;52034;51.926;6.320;2023-04-25T04:40:36;101030.25;;;7.15
58102;BMP280;52034;51.926;6.320;2023-04-25T04:41:52;101031.00;;;7.15
58102;BMP280;52034;51.926;6.320;2023-04-25T04:43:12;101038.75;;;7.17
58102;BMP280;52034;51.926;6.320;2023-04-25T04:44:13;101043.13;;;7.20
58102;BMP280;52034;51.926;6.320;2023-04-25T04:45:39;101052.84;;;7.19
58102;BMP280;52034;51.926;6.320;2023-04-25T04:46:55;101061.22;;;7.19
58102;BMP280;52034;51.926;6.320;2023-04-25T04:48:05;101063.66;;;7.13
58102;BMP280;52034;51.926;6.320;2023-04-25T04:49:18;101062.22;;;7.00
58102;BMP280;52034;51.926;6.320;2023-04-25T04:50:37;101070.31;;;6.83
58102;BMP280;52034;51.926;6.320;2023-04-25T04:52:08;101071.03;;;6.83
58102;BMP280;52034;51.926;6.320;2023-04-25T04:53:26;101076.50;;;6.81
58102;BMP280;52034;51.926;6.320;2023-04-25T04:54:45;101078.19;;;6.75
58102;BMP280;52034;51.926;6.320;2023-04-25T04:55:54;101075.66;;;6.67
58102;BMP280;52034;51.926;6.320;2023-04-25T04:57:13;101078.09;;;6.61
58102;BMP280;52034;51.926;6.320;2023-04-25T04:58:36;101086.38;;;6.59
58102;BMP280;52034;51.926;6.320;2023-04-25T04:59:54;101077.16;;;6.57
58102;BMP280;52034;51.926;6.320;2023-04-25T05:01:20;101079.34;;;6.58
58102;BMP280;52034;51.926;6.320;2023-04-25T05:02:37;101081.00;;;6.63
58102;BMP280;52034;51.926;6.320;2023-04-25T05:03:57;101089.00;;;6.69
58102;BMP280;52034;51.926;6.320;2023-04-25T05:05:21;101081.50;;;6.71
58102;BMP280;52034;51.926;6.320;2023-04-25T05:06:33;101083.91;;;6.77
58102;BMP280;52034;51.926;6.320;2023-04-25T05:08:02;101083.09;;;6.74
58102;BMP280;52034;51.926;6.320;2023-04-25T05:09:14;101083.91;;;6.77
58102;BMP280;52034;51.926;6.320;2023-04-25T05:10:33;101090.72;;;6.74
58102;BMP280;52034;51.926;6.320;2023-04-25T05:11:39;101079.78;;;6.78
58102;BMP280;52034;51.926;6.320;2023-04-25T05:12:51;101094.94;;;6.86
58102;BMP280;52034;51.926;6.320;2023-04-25T05:13:57;101089.81;;;6.94
58102;BMP280;52034;51.926;6.320;2023-04-25T05:15:16;101099.78;;;6.97
58102;BMP280;52034;51.926;6.320;2023-04-25T05:16:46;101115.91;;;6.99
58102;BMP280;52034;51.926;6.320;2023-04-25T05:18:04;101112.72;;;7.04
58102;BMP280;52034;51.926;6.320;2023-04-25T05:19:14;101106.28;;;7.02
58102;BMP280;52034;51.926;6.320;2023-04-25T05:20:24;101105.56;;;7.01
58102;BMP280;52034;51.926;6.320;2023-04-25T05:21:24;101116.75;;;7.01
58102;BMP280;52034;51.926;6.320;2023-04-25T05:22:39;101117.09;;;7.07
58102;BMP280;52034;51.926;6.320;2023-04-25T05:23:49;101114.31;;;7.07
58102;BMP280;52034;51.926;6.320;2023-04-25T05:25:18;101113.91;;;7.13
58102;BMP280;52034;51.926;6.320;2023-04-25T05:26:41;101115.00;;;7.19
58102;BMP280;52034;51.926;6.320;2023-04-25T05:27:56;101113.88;;;7.24
58102;BMP280;52034;51.926;6.320;2023-04-25T05:29:14;101121.03;;;7.27
58102;BMP280;52034;51.926;6.320;2023-04-25T05:30:38;101121.28;;;7.31
58102;BMP280;52034;51.926;6.320;2023-04-25T05:31:50;101113.03;;;7.33
58102;BMP280;52034;51.926;6.320;2023-04-25T05:32:51;101110.22;;;7.33
58102;BMP280;52034;51.926;6.320;2023-04-25T05:33:51;101117.97;;;7.35
58102;BMP280;52034;51.926;6.320;2023-04-25T05:34:52;101121.47;;;7.35
58102;BMP280;52034;51.926;6.320;2023-04-25T05:36:07;101124.66;;;7.30
58102;BMP280;52034;51.926;6.320;2023-04-25T05:37:07;101115.69;;;7.31
58102;BMP280;52034;51.926;6.320;2023-04-25T05:38:14;101124.53;;;7.28
58102;BMP280;52034;51.926;6.320;2023-04-25T05:39:47;101121.13;;;7.29
58102;BMP280;52034;51.926;6.320;2023-04-25T05:41:03;101126.84;;;7.31
58102;BMP280;52034;51.926;6.320;2023-04-25T05:42:27;101123.31;;;7.31
58102;BMP280;52034;51.926;6.320;2023-04-25T05:43:50;101123.31;;;7.31
58102;BMP280;52034;51.926;6.320;2023-04-25T05:44:57;101123.22;;;7.29
58102;BMP280;52034;51.926;6.320;2023-04-25T05:46:22;101118.94;;;7.28
58102;BMP280;52034;51.926;6.320;2023-04-25T05:47:49;101125.50;;;7.32
58102;BMP280;52034;51.926;6.320;2023-04-25T05:48:57;101132.78;;;7.37
58102;BMP280;52034;51.926;6.320;2023-04-25T05:50:14;101121.69;;;7.39
58102;BMP280;52034;51.926;6.320;2023-04-25T05:51:24;101125.09;;;7.38
58102;BMP280;52034;51.926;6.320;2023-04-25T05:52:53;101136.28;;;7.38
58102;BMP280;52034;51.926;6.320;2023-04-25T05:54:12;101136.41;;;7.40
58102;BMP280;52034;51.926;6.320;2023-04-25T05:55:13;101136.91;;;7.36
58102;BMP280;52034;51.926;6.320;2023-04-25T05:56:14;101140.41;;;7.37
58102;BMP280;52034;51.926;6.320;2023-04-25T05:57:24;101142.38;;;7.34
58102;BMP280;52034;51.926;6.320;2023-04-25T05:58:26;101134.13;;;7.36
58102;BMP280;52034;51.926;6.320;2023-04-25T05:59:27;101141.03;;;7.35
58102;BMP280;52034;51.926;6.320;2023-04-25T06:00:28;101133.78;;;7.30
58102;BMP280;52034;51.926;6.320;2023-04-25T06:01:28;101145.28;;;7.36
58102;BMP280;52034;51.926;6.320;2023-04-25T06:02:29;101145.53;;;7.40
58102;BMP280;52034;51.926;6.320;2023-04-25T06:03:29;101143.16;;;7.48
58102;BMP280;52034;51.926;6.320;2023-04-25T06:04:31;101153.72;;;7.50
58102;BMP280;52034;51.926;6.320;2023-04-25T06:05:32;101156.75;;;7.54
58102;BMP280;52034;51.926;6.320;2023-04-25T06:06:33;101157.63;;;7.56
58102;BMP280;52034;51.926;6.320;2023-04-25T06:07:33;101155.06;;;7.49
58102;BMP280;52034;51.926;6.320;2023-04-25T06:08:34;101161.41;;;7.49
58102;BMP280;52034;51.926;6.320;2023-04-25T06:09:34;101159.22;;;7.48
58102;BMP280;52034;51.926;6.320;2023-04-25T06:10:36;101158.09;;;7.53